createdAt,value
2022-08-08T00:00:55.167Z,1023.07
2022-08-08T00:00:55.240Z,1023.11
2022-08-08T00:02:03.094Z,1023.06
2022-08-08T00:02:33.266Z,1023.06
2022-08-08T00:03:32.083Z,1023.08
2022-08-08T00:04:30.485Z,1023.07
2022-08-08T00:05:44.359Z,1023.06
2022-08-08T00:06:34.970Z,1023.04
2022-08-08T00:07:30.756Z,1023.04
2022-08-08T00:08:31.340Z,1023.04
2022-08-08T00:09:33.015Z,1023.04
2022-08-08T00:10:32.260Z,1023.06
2022-08-08T00:11:46.931Z,1023.06
2022-08-08T00:12:32.075Z,1023.04
2022-08-08T00:14:16.809Z,1023.00
2022-08-08T00:14:57.319Z,1023.03
2022-08-08T00:15:57.182Z,1023.04
2022-08-08T00:16:33.020Z,1023.07
2022-08-08T00:17:35.219Z,1023.05
2022-08-08T00:18:33.660Z,1023.07
2022-08-08T00:19:32.902Z,1023.08
2022-08-08T00:20:33.219Z,1023.07
2022-08-08T00:21:43.446Z,1023.08
2022-08-08T00:22:35.741Z,1023.07
2022-08-08T00:23:42.862Z,1023.06
2022-08-08T00:24:35.345Z,1023.07
2022-08-08T00:25:34.574Z,1023.05
2022-08-08T00:26:37.764Z,1023.08
2022-08-08T00:27:38.084Z,1023.11
2022-08-08T00:28:36.853Z,1023.04
2022-08-08T00:29:45.282Z,1023.09
2022-08-08T00:30:45.187Z,1023.06
2022-08-08T00:32:28.830Z,1023.05
2022-08-08T00:32:39.651Z,1023.07
2022-08-08T00:34:18.659Z,1023.05
2022-08-08T00:34:40.086Z,1023.06
2022-08-08T00:35:39.359Z,1023.07
2022-08-08T00:36:37.814Z,1023.07
2022-08-08T00:37:47.667Z,1023.09
2022-08-08T00:38:44.277Z,1023.09
2022-08-08T00:41:10.390Z,1023.05
2022-08-08T00:41:10.631Z,1023.10
2022-08-08T00:41:54.466Z,1023.09
2022-08-08T00:42:44.529Z,1023.07
2022-08-08T00:43:41.103Z,1023.07
2022-08-08T00:44:40.071Z,1023.03
2022-08-08T00:45:40.601Z,1023.05
2022-08-08T00:46:57.270Z,1023.04
2022-08-08T00:48:01.978Z,1023.02
2022-08-08T00:48:43.232Z,1023.02
2022-08-08T00:49:50.425Z,1023.03
2022-08-08T00:50:48.224Z,1023.09
2022-08-08T00:51:43.966Z,1023.11
2022-08-08T00:52:48.574Z,1023.07
2022-08-08T00:54:04.332Z,1023.06
2022-08-08T00:54:45.658Z,1023.06
2022-08-08T00:55:53.332Z,1023.05
2022-08-08T00:56:44.764Z,1023.10
2022-08-08T00:57:45.959Z,1023.09
2022-08-08T00:58:54.545Z,1023.08
2022-08-08T00:59:46.437Z,1023.06
2022-08-08T01:00:44.654Z,1023.08
2022-08-08T01:01:46.019Z,1023.12
2022-08-08T01:03:57.655Z,1023.10
2022-08-08T01:04:01.764Z,1023.13
2022-08-08T01:04:47.417Z,1023.12
2022-08-08T01:05:59.529Z,1023.13
2022-08-08T01:06:48.166Z,1023.12
2022-08-08T01:07:55.035Z,1023.09
2022-08-08T01:08:51.846Z,1023.11
2022-08-08T01:09:49.060Z,1023.08
2022-08-08T01:10:49.803Z,1023.07
2022-08-08T01:11:48.430Z,1023.08
2022-08-08T01:12:49.117Z,1023.08
2022-08-08T01:13:52.623Z,1023.08
2022-08-08T01:14:53.459Z,1023.12
2022-08-08T01:15:54.505Z,1023.09
2022-08-08T01:16:49.494Z,1023.13
2022-08-08T01:17:51.547Z,1023.10
2022-08-08T01:18:54.270Z,1023.13
2022-08-08T01:20:03.207Z,1023.11
2022-08-08T01:20:51.742Z,1023.13
2022-08-08T01:22:13.505Z,1023.15
2022-08-08T01:22:53.280Z,1023.17
2022-08-08T01:24:06.701Z,1023.13
2022-08-08T01:24:54.765Z,1023.14
2022-08-08T01:25:53.943Z,1023.15
2022-08-08T01:26:52.497Z,1023.10
2022-08-08T01:27:59.298Z,1023.15
2022-08-08T01:28:54.047Z,1023.14
2022-08-08T01:29:59.395Z,1023.13
2022-08-08T01:30:56.456Z,1023.12
2022-08-08T01:32:13.343Z,1023.09
2022-08-08T01:32:57.132Z,1023.13
2022-08-08T01:34:01.146Z,1023.15
2022-08-08T01:34:57.507Z,1023.15
2022-08-08T01:36:00.909Z,1023.16
2022-08-08T01:36:55.139Z,1023.15
2022-08-08T01:37:59.142Z,1023.14
2022-08-08T01:38:57.528Z,1023.13
2022-08-08T01:39:56.072Z,1023.11
2022-08-08T01:40:56.351Z,1023.18
2022-08-08T01:41:58.539Z,1023.16
2022-08-08T01:43:00.084Z,1023.17
2022-08-08T01:43:59.003Z,1023.17
2022-08-08T01:44:57.620Z,1023.14
2022-08-08T01:45:59.789Z,1023.14
2022-08-08T01:47:33.360Z,1023.13
2022-08-08T01:48:16.368Z,1023.07
2022-08-08T01:49:00.031Z,1023.09
2022-08-08T01:50:01.149Z,1023.11
2022-08-08T01:50:59.490Z,1023.09
2022-08-08T01:52:53.374Z,1023.11
2022-08-08T01:54:29.664Z,1023.13
2022-08-08T01:55:16.780Z,1023.12
2022-08-08T01:55:26.861Z,1023.09
2022-08-08T01:56:28.502Z,1023.13
2022-08-08T01:57:04.113Z,1023.13
2022-08-08T01:58:12.534Z,1023.13
2022-08-08T01:59:03.049Z,1023.14
2022-08-08T02:00:03.563Z,1023.11
2022-08-08T02:01:04.189Z,1023.10
2022-08-08T02:02:05.055Z,1023.16
2022-08-08T02:03:07.414Z,1023.11
2022-08-08T02:04:04.101Z,1023.10
2022-08-08T02:05:03.335Z,1023.12
2022-08-08T02:06:05.491Z,1023.14
2022-08-08T02:07:04.128Z,1023.11
2022-08-08T02:08:06.944Z,1023.10
2022-08-08T02:09:17.630Z,1023.10
2022-08-08T02:10:11.699Z,1023.09
2022-08-08T02:11:05.958Z,1023.05
2022-08-08T02:12:07.145Z,1023.07
2022-08-08T02:13:09.483Z,1023.06
2022-08-08T02:14:06.778Z,1023.04
2022-08-08T02:15:11.021Z,1023.08
2022-08-08T02:16:07.351Z,1023.06
2022-08-08T02:17:10.755Z,1023.01
2022-08-08T02:18:10.477Z,1023.07
2022-08-08T02:19:26.705Z,1023.08
2022-08-08T02:20:15.908Z,1023.10
2022-08-08T02:21:08.850Z,1023.12
2022-08-08T02:22:07.895Z,1023.10
2022-08-08T02:23:16.558Z,1023.11
2022-08-08T02:24:11.469Z,1023.10
2022-08-08T02:25:11.696Z,1023.07
2022-08-08T02:26:10.770Z,1023.11
2022-08-08T02:27:09.369Z,1023.09
2022-08-08T02:28:12.503Z,1023.09
2022-08-08T02:29:18.735Z,1023.08
2022-08-08T02:30:13.028Z,1023.08
2022-08-08T02:31:43.488Z,1023.03
2022-08-08T02:32:22.372Z,1023.05
2022-08-08T02:33:15.810Z,1023.05
2022-08-08T02:34:14.965Z,1023.06
2022-08-08T02:35:15.770Z,1023.05
2022-08-08T02:36:12.611Z,1023.03
2022-08-08T02:37:51.375Z,1023.02
2022-08-08T02:38:15.231Z,1023.03
2022-08-08T02:39:40.529Z,1023.00
2022-08-08T02:40:15.373Z,1023.03
2022-08-08T02:41:58.071Z,1023.00
2022-08-08T02:42:15.793Z,1023.04
2022-08-08T02:44:35.933Z,1023.04
2022-08-08T02:44:39.151Z,1023.01
2022-08-08T02:45:18.608Z,1023.00
2022-08-08T02:46:17.365Z,1023.01
2022-08-08T02:47:16.859Z,1023.04
2022-08-08T02:48:18.737Z,1023.04
2022-08-08T02:49:18.641Z,1023.06
2022-08-08T02:50:19.247Z,1023.02
2022-08-08T02:51:29.893Z,1023.01
2022-08-08T02:52:50.160Z,1023.04
2022-08-08T02:53:18.179Z,1023.02
2022-08-08T02:54:16.571Z,1023.01
2022-08-08T02:55:19.620Z,1023.02
2022-08-08T02:56:19.038Z,1023.01
2022-08-08T02:57:19.219Z,1023.07
2022-08-08T02:58:18.721Z,1023.05
2022-08-08T02:59:25.944Z,1023.08
2022-08-08T03:00:31.055Z,1023.08
2022-08-08T03:01:21.707Z,1023.09
2022-08-08T03:02:20.882Z,1023.03
2022-08-08T03:05:01.608Z,1023.07
2022-08-08T03:05:03.996Z,1023.08
2022-08-08T03:05:20.919Z,1023.09
2022-08-08T03:06:24.236Z,1023.09
2022-08-08T03:07:23.341Z,1023.09
2022-08-08T03:08:22.543Z,1023.13
2022-08-08T03:09:22.714Z,1023.13
2022-08-08T03:10:32.822Z,1023.14
2022-08-08T03:11:25.758Z,1023.14
2022-08-08T03:12:36.241Z,1023.16
2022-08-08T03:15:54.496Z,1023.18
2022-08-08T03:15:59.454Z,1023.17
2022-08-08T03:15:59.561Z,1023.19
2022-08-08T03:16:35.571Z,1023.16
2022-08-08T03:17:39.150Z,1023.14
2022-08-08T03:18:31.482Z,1023.14
2022-08-08T03:19:24.868Z,1023.15
2022-08-08T03:20:26.065Z,1023.13
2022-08-08T03:21:26.742Z,1023.15
2022-08-08T03:22:48.226Z,1023.15
2022-08-08T03:23:30.423Z,1023.14
2022-08-08T03:24:26.344Z,1023.15
2022-08-08T03:25:34.045Z,1023.14
2022-08-08T03:26:27.196Z,1023.16
2022-08-08T03:27:28.167Z,1023.20
2022-08-08T03:28:29.366Z,1023.19
2022-08-08T03:29:54.989Z,1023.19
2022-08-08T03:30:28.093Z,1023.17
2022-08-08T03:31:30.505Z,1023.22
2022-08-08T03:32:30.853Z,1023.16
2022-08-08T03:33:54.796Z,1023.22
2022-08-08T03:34:29.251Z,1023.22
2022-08-08T03:35:30.343Z,1023.19
2022-08-08T03:36:30.549Z,1023.22
2022-08-08T03:38:53.933Z,1023.22
2022-08-08T03:38:56.911Z,1023.18
2022-08-08T03:39:30.790Z,1023.22
2022-08-08T03:40:34.902Z,1023.22
2022-08-08T03:42:13.092Z,1023.25
2022-08-08T03:42:32.674Z,1023.23
2022-08-08T03:43:38.376Z,1023.25
2022-08-08T03:44:32.221Z,1023.28
2022-08-08T03:46:06.172Z,1023.25
2022-08-08T03:46:32.899Z,1023.22
2022-08-08T03:47:45.378Z,1023.29
2022-08-08T03:49:08.908Z,1023.27
2022-08-08T03:50:00.746Z,1023.28
2022-08-08T03:50:34.521Z,1023.32
2022-08-08T03:51:46.994Z,1023.34
2022-08-08T03:52:45.249Z,1023.32
2022-08-08T03:53:42.224Z,1023.32
2022-08-08T03:54:52.383Z,1023.30
2022-08-08T03:55:55.857Z,1023.29
2022-08-08T03:56:35.711Z,1023.30
2022-08-08T03:58:30.877Z,1023.31
2022-08-08T03:58:37.812Z,1023.31
2022-08-08T03:59:57.110Z,1023.29
2022-08-08T04:00:56.506Z,1023.33
2022-08-08T04:02:12.465Z,1023.33
2022-08-08T04:02:47.294Z,1023.32
2022-08-08T04:03:57.915Z,1023.32
2022-08-08T04:04:39.943Z,1023.30
2022-08-08T04:05:37.216Z,1023.30
2022-08-08T04:06:37.521Z,1023.25
2022-08-08T04:07:41.290Z,1023.28
2022-08-08T04:08:38.097Z,1023.23
2022-08-08T04:09:58.962Z,1023.24
2022-08-08T04:10:41.520Z,1023.31
2022-08-08T04:11:53.712Z,1023.29
2022-08-08T04:12:41.055Z,1023.35
2022-08-08T04:14:34.961Z,1023.31
2022-08-08T04:14:40.769Z,1023.34
2022-08-08T04:15:55.149Z,1023.32
2022-08-08T04:16:41.564Z,1023.34
2022-08-08T04:17:59.278Z,1023.34
2022-08-08T04:18:48.589Z,1023.32
2022-08-08T04:19:42.062Z,1023.37
2022-08-08T04:20:43.243Z,1023.42
2022-08-08T04:21:45.893Z,1023.39
2022-08-08T04:22:42.914Z,1023.41
2022-08-08T04:24:05.335Z,1023.42
2022-08-08T04:24:43.535Z,1023.41
2022-08-08T04:25:47.164Z,1023.43
2022-08-08T04:26:57.454Z,1023.45
2022-08-08T04:28:08.722Z,1023.45
2022-08-08T04:28:44.572Z,1023.49
2022-08-08T04:29:55.445Z,1023.45
2022-08-08T04:30:45.175Z,1023.46
2022-08-08T04:31:59.822Z,1023.47
2022-08-08T04:32:50.106Z,1023.45
2022-08-08T04:33:44.971Z,1023.47
2022-08-08T04:34:58.537Z,1023.47
2022-08-08T04:35:50.911Z,1023.45
2022-08-08T04:36:46.947Z,1023.45
2022-08-08T04:37:47.105Z,1023.48
2022-08-08T04:38:57.220Z,1023.50
2022-08-08T04:40:05.418Z,1023.51
2022-08-08T04:40:51.502Z,1023.47
2022-08-08T04:41:49.286Z,1023.45
2022-08-08T04:42:56.789Z,1023.53
2022-08-08T04:43:57.085Z,1023.48
2022-08-08T04:44:50.019Z,1023.50
2022-08-08T04:45:48.371Z,1023.48
2022-08-08T04:46:52.319Z,1023.51
2022-08-08T04:47:52.738Z,1023.51
2022-08-08T04:48:52.418Z,1023.51
2022-08-08T04:49:55.891Z,1023.52
2022-08-08T04:50:51.746Z,1023.48
2022-08-08T04:51:57.053Z,1023.49
2022-08-08T04:52:58.634Z,1023.50
2022-08-08T04:54:39.035Z,1023.49
2022-08-08T04:54:52.013Z,1023.54
2022-08-08T04:55:56.552Z,1023.53
2022-08-08T04:56:52.453Z,1023.51
2022-08-08T04:57:56.160Z,1023.50
2022-08-08T04:58:53.882Z,1023.50
2022-08-08T04:59:52.311Z,1023.51
2022-08-08T05:00:52.621Z,1023.54
2022-08-08T05:01:52.944Z,1023.55
2022-08-08T05:02:57.004Z,1023.58
2022-08-08T05:04:08.380Z,1023.58
2022-08-08T05:04:54.666Z,1023.56
2022-08-08T05:05:56.840Z,1023.58
2022-08-08T05:06:54.206Z,1023.62
2022-08-08T05:07:56.574Z,1023.62
2022-08-08T05:08:56.348Z,1023.62
2022-08-08T05:09:56.026Z,1023.64
2022-08-08T05:10:56.225Z,1023.62
2022-08-08T05:11:56.714Z,1023.65
2022-08-08T05:13:02.294Z,1023.65
2022-08-08T05:14:00.989Z,1023.63
2022-08-08T05:14:56.464Z,1023.67
2022-08-08T05:16:52.410Z,1023.64
2022-08-08T05:17:01.138Z,1023.64
2022-08-08T05:18:01.205Z,1023.64
2022-08-08T05:18:59.545Z,1023.68
2022-08-08T05:20:11.041Z,1023.67
2022-08-08T05:20:59.159Z,1023.71
2022-08-08T05:22:01.354Z,1023.68
2022-08-08T05:22:59.428Z,1023.66
2022-08-08T05:24:04.456Z,1023.69
2022-08-08T05:25:03.975Z,1023.67
2022-08-08T05:26:00.366Z,1023.65
2022-08-08T05:27:01.627Z,1023.73
2022-08-08T05:28:03.051Z,1023.74
2022-08-08T05:29:06.028Z,1023.70
2022-08-08T05:30:03.786Z,1023.69
2022-08-08T05:31:08.603Z,1023.71
2022-08-08T05:32:05.889Z,1023.75
2022-08-08T05:33:03.302Z,1023.66
2022-08-08T05:34:01.656Z,1023.67
2022-08-08T05:35:05.209Z,1023.66
2022-08-08T05:36:05.608Z,1023.69
2022-08-08T05:37:02.466Z,1023.67
2022-08-08T05:38:04.640Z,1023.72
2022-08-08T05:39:04.023Z,1023.65
2022-08-08T05:40:03.309Z,1023.70
2022-08-08T05:41:05.523Z,1023.65
2022-08-08T05:42:03.799Z,1023.70
2022-08-08T05:43:40.108Z,1023.70
2022-08-08T05:44:05.405Z,1023.71
2022-08-08T05:45:24.383Z,1023.75
2022-08-08T05:46:08.520Z,1023.74
2022-08-08T05:47:06.080Z,1023.73
2022-08-08T05:48:09.906Z,1023.73
2022-08-08T05:49:11.122Z,1023.78
2022-08-08T05:50:07.072Z,1023.72
2022-08-08T05:51:13.267Z,1023.74
2022-08-08T05:52:09.583Z,1023.71
2022-08-08T05:53:53.816Z,1023.72
2022-08-08T05:54:27.147Z,1023.76
2022-08-08T05:55:09.986Z,1023.72
2022-08-08T05:56:14.697Z,1023.70
2022-08-08T05:57:10.821Z,1023.71
2022-08-08T05:58:17.854Z,1023.76
2022-08-08T05:59:12.493Z,1023.77
2022-08-08T06:00:22.591Z,1023.74
2022-08-08T06:01:10.202Z,1023.75
2022-08-08T06:02:11.394Z,1023.73
2022-08-08T06:03:23.712Z,1023.79
2022-08-08T06:04:13.837Z,1023.76
2022-08-08T06:05:33.633Z,1023.77
2022-08-08T06:06:11.505Z,1023.80
2022-08-08T06:07:13.681Z,1023.78
2022-08-08T06:08:33.564Z,1023.77
2022-08-08T06:10:00.267Z,1023.81
2022-08-08T06:10:12.614Z,1023.80
2022-08-08T06:11:13.347Z,1023.83
2022-08-08T06:12:14.286Z,1023.82
2022-08-08T06:13:14.236Z,1023.79
2022-08-08T06:14:17.740Z,1023.81
2022-08-08T06:15:16.237Z,1023.81
2022-08-08T06:16:13.271Z,1023.83
2022-08-08T06:17:19.213Z,1023.79
2022-08-08T06:18:20.072Z,1023.82
2022-08-08T06:19:17.061Z,1023.82
2022-08-08T06:20:16.135Z,1023.83
2022-08-08T06:21:33.060Z,1023.83
2022-08-08T06:22:35.387Z,1023.83
2022-08-08T06:23:16.137Z,1023.84
2022-08-08T06:24:27.000Z,1023.87
2022-08-08T06:25:16.654Z,1023.82
2022-08-08T06:26:44.955Z,1023.81
2022-08-08T06:27:17.135Z,1023.82
2022-08-08T06:28:18.335Z,1023.84
2022-08-08T06:29:26.657Z,1023.85
2022-08-08T06:30:20.327Z,1023.86
2022-08-08T06:31:18.229Z,1023.86
2022-08-08T06:32:17.545Z,1023.84
2022-08-08T06:33:37.046Z,1023.88
2022-08-08T06:34:25.652Z,1023.88
2022-08-08T06:36:06.511Z,1023.85
2022-08-08T06:36:19.585Z,1023.87
2022-08-08T06:37:25.119Z,1023.88
2022-08-08T06:38:27.701Z,1023.88
2022-08-08T06:39:23.658Z,1023.92
2022-08-08T06:40:19.753Z,1023.95
2022-08-08T06:41:21.889Z,1023.87
2022-08-08T06:42:24.186Z,1023.89
2022-08-08T06:43:20.519Z,1023.89
2022-08-08T06:44:24.949Z,1023.88
2022-08-08T06:45:22.978Z,1023.91
2022-08-08T06:46:23.857Z,1023.97
2022-08-08T06:47:22.899Z,1023.99
2022-08-08T06:48:26.685Z,1023.94
2022-08-08T06:49:54.908Z,1023.93
2022-08-08T06:50:32.295Z,1023.96
2022-08-08T06:51:46.704Z,1024.02
2022-08-08T06:52:27.735Z,1023.97
2022-08-08T06:53:23.252Z,1024.02
2022-08-08T06:54:26.895Z,1024.04
2022-08-08T06:55:25.622Z,1024.00
2022-08-08T06:56:24.132Z,1024.01
2022-08-08T06:57:29.023Z,1024.10
2022-08-08T06:58:30.969Z,1024.11
2022-08-08T06:59:27.733Z,1024.08
2022-08-08T07:00:29.485Z,1023.93
2022-08-08T07:02:26.390Z,1023.95
2022-08-08T07:02:29.661Z,1023.95
2022-08-08T07:04:34.895Z,1023.97
2022-08-08T07:04:41.419Z,1023.98
2022-08-08T07:05:29.666Z,1023.95
2022-08-08T07:06:28.586Z,1023.94
2022-08-08T07:07:32.795Z,1023.93
2022-08-08T07:08:28.257Z,1023.94
2022-08-08T07:09:41.709Z,1023.97
2022-08-08T07:10:28.929Z,1024.01
2022-08-08T07:11:30.302Z,1024.04
2022-08-08T07:12:31.305Z,1023.99
2022-08-08T07:13:31.672Z,1024.00
2022-08-08T07:14:29.230Z,1024.05
2022-08-08T07:16:01.228Z,1024.05
2022-08-08T07:16:30.733Z,1024.09
2022-08-08T07:17:40.422Z,1024.09
2022-08-08T07:18:35.593Z,1024.06
2022-08-08T07:19:30.707Z,1024.08
2022-08-08T07:20:32.676Z,1024.07
2022-08-08T07:21:32.094Z,1024.10
2022-08-08T07:22:32.037Z,1024.11
2022-08-08T07:23:57.581Z,1024.10
2022-08-08T07:24:32.792Z,1024.07
2022-08-08T07:25:33.981Z,1024.11
2022-08-08T07:26:35.094Z,1024.14
2022-08-08T07:27:46.932Z,1024.13
2022-08-08T07:28:35.953Z,1024.10
2022-08-08T07:29:59.594Z,1024.14
2022-08-08T07:30:34.465Z,1024.15
2022-08-08T07:31:35.985Z,1024.16
2022-08-08T07:32:35.845Z,1024.15
2022-08-08T07:33:38.046Z,1024.16
2022-08-08T07:34:35.653Z,1024.19
2022-08-08T07:35:35.962Z,1024.16
2022-08-08T07:36:37.128Z,1024.22
2022-08-08T07:37:55.438Z,1024.19
2022-08-08T07:38:38.218Z,1024.22
2022-08-08T07:39:45.449Z,1024.21
2022-08-08T07:40:37.344Z,1024.23
2022-08-08T07:41:58.575Z,1024.25
2022-08-08T07:42:39.779Z,1024.21
2022-08-08T07:43:38.121Z,1024.24
2022-08-08T07:44:43.426Z,1024.26
2022-08-08T07:46:05.565Z,1024.24
2022-08-08T07:46:38.921Z,1024.18
2022-08-08T07:47:40.309Z,1024.20
2022-08-08T07:48:40.289Z,1024.20
2022-08-08T07:49:39.919Z,1024.18
2022-08-08T07:50:39.002Z,1024.25
2022-08-08T07:51:45.349Z,1024.23
2022-08-08T07:52:43.482Z,1024.31
2022-08-08T07:54:02.480Z,1024.28
2022-08-08T07:54:42.888Z,1024.30
2022-08-08T07:55:40.401Z,1024.28
2022-08-08T07:56:40.753Z,1024.30
2022-08-08T07:57:48.260Z,1024.31
2022-08-08T07:58:45.224Z,1024.29
2022-08-08T07:59:41.486Z,1024.29
2022-08-08T08:00:43.765Z,1024.27
2022-08-08T08:02:35.680Z,1024.29
2022-08-08T08:02:43.429Z,1024.26
2022-08-08T08:03:46.465Z,1024.29
2022-08-08T08:04:44.668Z,1024.29
2022-08-08T08:05:43.042Z,1024.31
2022-08-08T08:06:43.326Z,1024.34
2022-08-08T08:07:45.952Z,1024.35
2022-08-08T08:08:52.118Z,1024.36
2022-08-08T08:09:45.082Z,1024.35
2022-08-08T08:10:46.265Z,1024.39
2022-08-08T08:11:51.917Z,1024.43
2022-08-08T08:12:46.038Z,1024.39
2022-08-08T08:14:08.402Z,1024.41
2022-08-08T08:14:46.586Z,1024.36
2022-08-08T08:15:45.893Z,1024.37
2022-08-08T08:16:48.696Z,1024.35
2022-08-08T08:17:48.195Z,1024.38
2022-08-08T08:18:52.217Z,1024.44
2022-08-08T08:19:50.440Z,1024.47
2022-08-08T08:20:48.369Z,1024.50
2022-08-08T08:21:57.524Z,1024.52
2022-08-08T08:22:48.920Z,1024.53
2022-08-08T08:23:50.869Z,1024.53
2022-08-08T08:24:48.441Z,1024.53
2022-08-08T08:25:52.042Z,1024.50
2022-08-08T08:26:52.750Z,1024.56
2022-08-08T08:27:49.326Z,1024.56
2022-08-08T08:28:52.588Z,1024.62
2022-08-08T08:29:50.905Z,1024.58
2022-08-08T08:30:52.091Z,1024.60
2022-08-08T08:31:53.918Z,1024.58
2022-08-08T08:32:52.024Z,1024.59
2022-08-08T08:33:54.154Z,1024.59
2022-08-08T08:34:51.373Z,1024.61
2022-08-08T08:36:19.797Z,1024.62
2022-08-08T08:36:55.000Z,1024.63
2022-08-08T08:38:14.505Z,1024.61
2022-08-08T08:38:54.935Z,1024.70
2022-08-08T08:40:01.123Z,1024.68
2022-08-08T08:40:53.952Z,1024.68
2022-08-08T08:41:53.243Z,1024.64
2022-08-08T08:42:55.439Z,1024.66
2022-08-08T08:44:14.383Z,1024.69
2022-08-08T08:44:57.069Z,1024.69
2022-08-08T08:45:57.368Z,1024.70
2022-08-08T08:46:58.899Z,1024.74
2022-08-08T08:47:58.471Z,1024.74
2022-08-08T08:48:56.033Z,1024.74
2022-08-08T08:49:57.388Z,1024.77
2022-08-08T08:50:57.558Z,1024.80
2022-08-08T08:51:56.050Z,1024.79
2022-08-08T08:52:59.845Z,1024.81
2022-08-08T08:54:00.051Z,1024.77
2022-08-08T08:54:58.750Z,1024.82
2022-08-08T08:56:01.301Z,1024.80
2022-08-08T08:56:58.418Z,1024.81
2022-08-08T08:57:59.192Z,1024.79
2022-08-08T08:59:01.385Z,1024.80
2022-08-08T09:00:04.934Z,1024.75
2022-08-08T09:01:08.824Z,1024.78
2022-08-08T09:02:01.007Z,1024.83
2022-08-08T09:03:00.071Z,1024.79
2022-08-08T09:04:01.434Z,1024.82
2022-08-08T09:04:59.801Z,1024.81
2022-08-08T09:06:00.043Z,1024.86
2022-08-08T09:07:12.057Z,1024.83
2022-08-08T09:08:12.605Z,1024.83
2022-08-08T09:09:03.366Z,1024.81
2022-08-08T09:10:04.608Z,1024.84
2022-08-08T09:11:02.376Z,1024.83
2022-08-08T09:12:07.548Z,1024.84
2022-08-08T09:13:04.944Z,1024.84
2022-08-08T09:14:02.947Z,1024.86
2022-08-08T09:15:03.524Z,1024.84
2022-08-08T09:16:04.198Z,1024.83
2022-08-08T09:17:11.566Z,1024.85
2022-08-08T09:18:04.516Z,1024.84
2022-08-08T09:19:05.704Z,1024.84
2022-08-08T09:22:01.321Z,1024.87
2022-08-08T09:22:01.478Z,1024.85
2022-08-08T09:22:06.697Z,1024.86
2022-08-08T09:23:05.028Z,1024.81
2022-08-08T09:24:08.249Z,1024.82
2022-08-08T09:25:09.686Z,1024.77
2022-08-08T09:26:05.811Z,1024.80
2022-08-08T09:27:06.056Z,1024.87
2022-08-08T09:28:06.299Z,1024.83
2022-08-08T09:29:08.554Z,1024.79
2022-08-08T09:30:10.642Z,1024.78
2022-08-08T09:31:12.653Z,1024.77
2022-08-08T09:32:12.011Z,1024.79
2022-08-08T09:33:54.911Z,1024.80
2022-08-08T09:34:32.614Z,1024.82
2022-08-08T09:35:09.951Z,1024.82
2022-08-08T09:36:11.153Z,1024.82
2022-08-08T09:37:34.108Z,1024.82
2022-08-08T09:38:17.729Z,1024.83
2022-08-08T09:39:18.885Z,1024.86
2022-08-08T09:40:14.446Z,1024.83
2022-08-08T09:41:09.805Z,1024.86
2022-08-08T09:42:20.908Z,1024.84
2022-08-08T09:43:16.654Z,1024.86
2022-08-08T09:44:12.922Z,1024.90
2022-08-08T09:45:20.621Z,1024.88
2022-08-08T09:46:16.792Z,1024.93
2022-08-08T09:47:25.392Z,1024.93
2022-08-08T09:48:18.550Z,1024.94
2022-08-08T09:49:41.110Z,1024.95
2022-08-08T09:50:15.203Z,1024.90
2022-08-08T09:51:14.374Z,1024.89
2022-08-08T09:52:16.208Z,1024.90
2022-08-08T09:53:32.055Z,1024.90
2022-08-08T09:54:19.956Z,1024.97
2022-08-08T09:55:17.549Z,1024.93
2022-08-08T09:56:24.946Z,1024.97
2022-08-08T09:57:17.104Z,1024.97
2022-08-08T09:58:19.835Z,1024.98
2022-08-08T09:59:50.521Z,1024.99
2022-08-08T10:00:49.739Z,1025.00
2022-08-08T10:02:00.134Z,1025.00
2022-08-08T10:02:16.577Z,1025.02
2022-08-08T10:03:19.821Z,1025.08
2022-08-08T10:04:35.439Z,1025.13
2022-08-08T10:05:22.707Z,1025.08
2022-08-08T10:06:17.712Z,1025.08
2022-08-08T10:07:17.269Z,1025.07
2022-08-08T10:08:21.302Z,1025.08
2022-08-08T10:09:19.391Z,1025.08
2022-08-08T10:10:17.963Z,1025.07
2022-08-08T10:12:26.491Z,1025.08
2022-08-08T10:12:26.529Z,1025.10
2022-08-08T10:13:25.899Z,1025.08
2022-08-08T10:14:27.635Z,1025.05
2022-08-08T10:15:20.334Z,1025.04
2022-08-08T10:16:21.514Z,1025.05
2022-08-08T10:17:56.812Z,1025.01
2022-08-08T10:18:25.863Z,1025.21
2022-08-08T10:19:20.463Z,1025.22
2022-08-08T10:20:22.544Z,1024.97
2022-08-08T10:21:25.121Z,1025.10
2022-08-08T10:22:24.261Z,1025.05
2022-08-08T10:23:41.281Z,1024.96
2022-08-08T10:24:28.530Z,1024.95
2022-08-08T10:25:23.033Z,1025.03
2022-08-08T10:26:30.460Z,1025.07
2022-08-08T10:27:23.858Z,1025.25
2022-08-08T10:28:25.619Z,1025.10
2022-08-08T10:29:24.856Z,1024.98
2022-08-08T10:30:59.660Z,1025.07
2022-08-08T10:31:47.530Z,1025.10
2022-08-08T10:32:24.993Z,1025.02
2022-08-08T10:33:38.270Z,1025.06
2022-08-08T10:34:27.317Z,1025.06
2022-08-08T10:36:20.538Z,1025.00
2022-08-08T10:36:30.934Z,1025.08
2022-08-08T10:37:27.662Z,1025.25
2022-08-08T10:38:29.453Z,1025.32
2022-08-08T10:39:31.705Z,1025.03
2022-08-08T10:40:27.131Z,1024.98
2022-08-08T10:41:35.651Z,1025.01
2022-08-08T10:42:29.839Z,1024.92
2022-08-08T10:43:32.175Z,1024.95
2022-08-08T10:44:28.297Z,1024.92
2022-08-08T10:45:27.560Z,1024.94
2022-08-08T10:46:30.262Z,1024.95
2022-08-08T10:47:30.496Z,1024.93
2022-08-08T10:48:31.356Z,1024.90
2022-08-08T10:50:00.843Z,1024.92
2022-08-08T10:50:31.894Z,1024.86
2022-08-08T10:51:31.570Z,1024.88
2022-08-08T10:52:31.125Z,1024.88
2022-08-08T10:53:39.328Z,1024.91
2022-08-08T10:54:31.910Z,1024.91
2022-08-08T10:55:41.679Z,1024.89
2022-08-08T10:56:35.068Z,1024.92
2022-08-08T10:57:45.343Z,1024.87
2022-08-08T10:58:36.019Z,1024.92
2022-08-08T10:59:40.077Z,1024.93
2022-08-08T11:00:48.356Z,1024.95
2022-08-08T11:01:33.464Z,1024.96
2022-08-08T11:02:32.873Z,1024.93
2022-08-08T11:03:36.438Z,1024.93
2022-08-08T11:04:39.209Z,1024.93
2022-08-08T11:05:38.602Z,1024.92
2022-08-08T11:06:34.691Z,1024.92
2022-08-08T11:08:31.425Z,1024.93
2022-08-08T11:08:42.972Z,1024.96
2022-08-08T11:09:35.394Z,1024.99
2022-08-08T11:10:34.537Z,1025.02
2022-08-08T11:12:05.507Z,1025.02
2022-08-08T11:12:38.347Z,1025.00
2022-08-08T11:13:39.216Z,1025.00
2022-08-08T11:14:37.666Z,1024.99
2022-08-08T11:15:53.160Z,1025.01
2022-08-08T11:16:38.247Z,1024.96
2022-08-08T11:17:59.361Z,1025.00
2022-08-08T11:18:41.616Z,1025.03
2022-08-08T11:19:37.958Z,1025.02
2022-08-08T11:20:39.206Z,1025.02
2022-08-08T11:21:38.532Z,1025.06
2022-08-08T11:22:38.703Z,1025.06
2022-08-08T11:23:41.159Z,1025.02
2022-08-08T11:24:40.260Z,1025.03
2022-08-08T11:25:53.315Z,1024.97
2022-08-08T11:26:56.838Z,1024.99
2022-08-08T11:27:42.244Z,1024.96
2022-08-08T11:28:43.433Z,1025.01
2022-08-08T11:29:50.993Z,1024.97
2022-08-08T11:30:50.087Z,1024.98
2022-08-08T11:31:48.315Z,1024.96
2022-08-08T11:32:47.409Z,1024.94
2022-08-08T11:33:52.366Z,1024.95
2022-08-08T11:35:08.819Z,1024.96
2022-08-08T11:35:43.455Z,1024.96
2022-08-08T11:36:43.624Z,1025.03
2022-08-08T11:38:35.859Z,1024.98
2022-08-08T11:38:54.866Z,1025.02
2022-08-08T11:39:43.587Z,1025.08
2022-08-08T11:40:45.537Z,1024.98
2022-08-08T11:41:43.060Z,1025.00
2022-08-08T11:42:44.259Z,1024.97
2022-08-08T11:43:48.967Z,1024.91
2022-08-08T11:44:43.846Z,1024.96
2022-08-08T11:46:09.130Z,1024.96
2022-08-08T11:46:45.465Z,1025.15
2022-08-08T11:48:02.869Z,1025.11
2022-08-08T11:48:49.007Z,1025.10
2022-08-08T11:49:49.106Z,1025.05
2022-08-08T11:50:45.699Z,1025.03
2022-08-08T11:51:49.877Z,1025.05
2022-08-08T11:52:46.219Z,1025.26
2022-08-08T11:53:55.169Z,1025.29
2022-08-08T11:54:49.686Z,1025.25
2022-08-08T11:55:47.009Z,1025.16
2022-08-08T11:56:55.979Z,1025.06
2022-08-08T11:57:51.790Z,1024.99
2022-08-08T11:58:50.822Z,1025.10
2022-08-08T12:00:01.081Z,1025.10
2022-08-08T12:00:51.278Z,1025.22
2022-08-08T12:01:48.598Z,1025.09
2022-08-08T12:02:51.155Z,1025.02
2022-08-08T12:03:50.660Z,1025.06
2022-08-08T12:04:49.448Z,1025.11
2022-08-08T12:05:49.687Z,1025.06
2022-08-08T12:06:51.884Z,1025.03
2022-08-08T12:07:51.454Z,1025.11